Time;durP1;ratioP1;P1;durP2;ratioP2;P2;SDS_P1;SDS_P2;PMS_P1;PMS_P2;Temp;Humidity;BMP_temperature;BMP_pressure;BME280_temperature;BME280_humidity;BME280_pressure;Samples;Min_cycle;Max_cycle;Signal;HPM_P1;HPM_P2
2022/10/05 00:01:43;;;;;;;13.97;12.67;;;11.90;99.90;;;;;;5095421;28;20462;-68
2022/10/05 00:04:15;;;;;;;14.10;12.70;;;11.90;99.90;;;;;;5097210;28;20465;-71
2022/10/05 00:06:43;;;;;;;13.07;12.00;;;11.80;99.90;;;;;;5093744;28;20489;-71
2022/10/05 00:09:15;;;;;;;14.93;11.80;;;11.90;99.90;;;;;;5091458;28;20488;-69
2022/10/05 00:11:43;;;;;;;13.40;12.03;;;11.90;99.90;;;;;;5094872;28;20463;-73
2022/10/05 00:14:17;;;;;;;13.63;12.33;;;11.90;99.90;;;;;;5095358;28;20478;-69
2022/10/05 00:16:44;;;;;;;15.57;13.77;;;11.80;99.90;;;;;;5096082;28;20476;-69
2022/10/05 00:19:19;;;;;;;21.57;13.70;;;11.80;99.90;;;;;;5090610;28;20772;-68
2022/10/05 00:21:46;;;;;;;14.40;12.97;;;11.90;99.90;;;;;;5091583;28;20471;-69
2022/10/05 00:24:16;;;;;;;16.57;12.67;;;11.80;99.90;;;;;;5099393;28;20461;-69
2022/10/05 00:26:44;;;;;;;17.87;11.93;;;11.90;99.90;;;;;;5096755;28;20462;-69
2022/10/05 00:29:19;;;;;;;14.13;12.83;;;11.90;99.90;;;;;;5099716;28;21033;-69
2022/10/05 00:31:46;;;;;;;17.13;12.03;;;11.90;99.90;;;;;;5093935;28;20555;-69
2022/10/05 00:34:13;;;;;;;13.30;12.20;;;11.90;99.90;;;;;;5093063;28;20489;-71
2022/10/05 00:36:40;;;;;;;13.40;12.00;;;11.90;99.90;;;;;;5089632;28;20465;-69
2022/10/05 00:39:07;;;;;;;14.23;12.77;;;12.00;99.90;;;;;;5093622;28;20465;-69
2022/10/05 00:41:45;;;;;;;16.20;14.50;;;12.00;99.90;;;;;;5093096;28;20539;-70
2022/10/05 00:44:27;;;;;;;13.37;12.17;;;12.00;99.90;;;;;;5095327;28;21033;-72
2022/10/05 00:46:57;;;;;;;14.13;12.67;;;12.00;99.90;;;;;;5091195;28;20466;-69
2022/10/05 00:49:41;;;;;;;14.03;12.60;;;12.00;99.90;;;;;;5093114;28;20956;-69
2022/10/05 00:52:18;;;;;;;13.17;11.70;;;12.10;99.90;;;;;;5093838;28;20479;-69
2022/10/05 00:54:51;;;;;;;16.07;12.80;;;12.00;99.90;;;;;;5093045;28;20489;-69
2022/10/05 00:57:30;;;;;;;13.70;12.33;;;12.00;99.90;;;;;;5091300;28;20991;-71
2022/10/05 01:00:05;;;;;;;14.77;13.20;;;12.10;99.90;;;;;;5096789;28;20457;-70
2022/10/05 01:02:40;;;;;;;12.83;11.70;;;12.10;99.90;;;;;;5092767;28;20457;-69
2022/10/05 01:05:13;;;;;;;12.97;11.67;;;12.10;99.90;;;;;;5096292;28;20461;-69
2022/10/05 01:07:50;;;;;;;19.03;12.17;;;12.10;99.90;;;;;;5093567;28;20454;-69
2022/10/05 01:10:25;;;;;;;13.40;12.10;;;12.10;99.90;;;;;;5093831;28;20507;-70
2022/10/05 01:13:02;;;;;;;13.77;12.37;;;12.10;99.90;;;;;;5091118;28;21078;-67
2022/10/05 01:15:35;;;;;;;13.83;12.20;;;12.10;99.90;;;;;;5092115;28;20462;-71
2022/10/05 01:18:09;;;;;;;18.43;13.63;;;12.10;99.90;;;;;;5099826;28;20489;-71
2022/10/05 01:20:46;;;;;;;15.30;12.50;;;12.00;99.90;;;;;;5092567;28;20462;-68
2022/10/05 01:23:32;;;;;;;13.73;12.33;;;12.00;99.90;;;;;;5097920;28;20483;-71
2022/10/05 01:26:15;;;;;;;13.57;12.27;;;12.00;99.90;;;;;;5093325;28;20465;-69
2022/10/05 01:28:48;;;;;;;14.00;12.60;;;12.10;99.90;;;;;;5089591;28;20497;-72
2022/10/05 01:31:24;;;;;;;15.70;12.33;;;12.10;99.90;;;;;;5091133;28;20472;-70
2022/10/05 01:34:00;;;;;;;18.23;12.50;;;12.00;99.90;;;;;;5096223;28;20488;-68
2022/10/05 01:36:30;;;;;;;13.90;11.83;;;12.10;99.90;;;;;;5093994;28;20461;-70
2022/10/05 01:39:06;;;;;;;12.70;11.40;;;12.10;99.90;;;;;;5089395;28;20468;-68
2022/10/05 01:41:38;;;;;;;12.97;11.73;;;12.10;99.90;;;;;;5091597;28;20468;-68
2022/10/05 01:44:13;;;;;;;13.17;11.97;;;12.10;99.90;;;;;;5096422;28;20459;-70
2022/10/05 01:46:47;;;;;;;14.90;13.17;;;12.10;99.90;;;;;;5091051;28;20473;-70
2022/10/05 01:49:31;;;;;;;15.87;12.87;;;12.10;99.90;;;;;;5100012;28;20975;-71
2022/10/05 01:52:08;;;;;;;15.50;13.77;;;12.10;99.90;;;;;;5092480;28;20556;-71
2022/10/05 01:54:44;;;;;;;14.53;13.13;;;12.00;99.90;;;;;;5094507;28;20808;-70
2022/10/05 01:57:20;;;;;;;14.43;12.97;;;12.10;99.90;;;;;;5094519;28;20469;-71
2022/10/05 02:00:02;;;;;;;13.33;11.70;;;12.00;99.90;;;;;;5096641;28;20460;-69
2022/10/05 02:02:31;;;;;;;15.80;13.93;;;12.10;99.90;;;;;;5098255;28;20461;-69
2022/10/05 02:05:04;;;;;;;14.73;13.30;;;12.10;99.90;;;;;;5096770;28;20466;-69
2022/10/05 02:07:36;;;;;;;13.87;12.43;;;12.10;99.90;;;;;;5089601;28;20466;-68
2022/10/05 02:10:07;;;;;;;14.87;12.33;;;12.10;99.90;;;;;;5098243;28;20924;-69
2022/10/05 02:12:37;;;;;;;14.60;13.10;;;12.20;99.90;;;;;;5094257;28;20831;-68
2022/10/05 02:15:11;;;;;;;16.57;12.70;;;12.20;99.90;;;;;;5092468;28;20485;-69
2022/10/05 02:17:44;;;;;;;14.30;12.30;;;12.20;99.90;;;;;;5093127;28;20488;-69
2022/10/05 02:20:14;;;;;;;14.67;12.90;;;12.30;99.90;;;;;;5098542;28;20465;-72
2022/10/05 02:22:45;;;;;;;14.27;12.77;;;12.30;99.90;;;;;;5093516;28;20983;-69
2022/10/05 02:25:16;;;;;;;14.30;11.63;;;12.40;99.90;;;;;;5092915;28;20458;-70
2022/10/05 02:27:49;;;;;;;13.40;12.10;;;12.30;99.90;;;;;;5092889;28;20814;-69
2022/10/05 02:30:19;;;;;;;16.83;12.80;;;12.40;99.90;;;;;;5091297;28;20460;-69
2022/10/05 02:32:51;;;;;;;17.20;12.70;;;12.50;99.90;;;;;;5094557;28;20461;-72
2022/10/05 02:35:19;;;;;;;17.80;12.70;;;12.40;99.90;;;;;;5094813;28;20497;-71
2022/10/05 02:37:56;;;;;;;15.47;13.87;;;12.50;99.90;;;;;;5097545;28;20492;-69
2022/10/05 02:40:30;;;;;;;15.00;12.60;;;12.50;99.90;;;;;;5090710;28;20977;-69
2022/10/05 02:43:06;;;;;;;12.90;11.60;;;12.50;99.90;;;;;;5094694;28;20466;-68
2022/10/05 02:45:44;;;;;;;13.17;11.73;;;12.60;99.90;;;;;;5092563;28;20485;-69
2022/10/05 02:48:20;;;;;;;12.70;11.40;;;12.60;99.90;;;;;;5088947;28;20553;-70
2022/10/05 02:50:53;;;;;;;15.23;12.23;;;12.70;99.90;;;;;;5094084;28;20457;-71
2022/10/05 02:53:25;;;;;;;13.80;11.83;;;12.70;99.90;;;;;;5092829;28;20453;-70
2022/10/05 02:56:04;;;;;;;15.43;12.70;;;12.60;99.90;;;;;;5101377;28;20515;-69
2022/10/05 02:58:40;;;;;;;14.57;13.07;;;12.70;99.90;;;;;;5098247;28;20818;-72
2022/10/05 03:01:18;;;;;;;15.63;13.00;;;12.60;99.90;;;;;;5096388;28;20462;-69
2022/10/05 03:03:50;;;;;;;14.83;13.23;;;12.60;99.90;;;;;;5097964;28;20540;-72
2022/10/05 03:06:23;;;;;;;15.47;13.60;;;12.50;99.90;;;;;;5098758;28;20465;-72
2022/10/05 03:08:59;;;;;;;13.83;12.07;;;12.50;99.90;;;;;;5095970;28;20992;-73
2022/10/05 03:11:35;;;;;;;14.47;12.97;;;12.50;99.90;;;;;;5093408;28;20462;-72
2022/10/05 03:14:08;;;;;;;14.30;13.00;;;12.40;99.90;;;;;;5096976;28;20473;-70
2022/10/05 03:16:48;;;;;;;14.30;12.80;;;12.40;99.90;;;;;;5095145;28;20477;-70
2022/10/05 03:19:26;;;;;;;15.53;13.87;;;12.40;99.90;;;;;;5094500;28;20553;-71
2022/10/05 03:21:58;;;;;;;15.87;14.23;;;12.40;99.90;;;;;;5095453;28;20464;-70
2022/10/05 03:24:48;;;;;;;16.13;13.70;;;12.60;99.90;;;;;;5094178;28;20779;-70
2022/10/05 03:27:28;;;;;;;17.87;13.63;;;12.60;99.90;;;;;;5093450;28;20457;-70
2022/10/05 03:30:02;;;;;;;15.20;13.60;;;12.60;99.90;;;;;;5057250;28;20494;-72
2022/10/05 03:32:38;;;;;;;13.13;11.73;;;12.60;99.90;;;;;;5056887;28;20898;-70
2022/10/05 03:35:12;;;;;;;14.53;12.97;;;12.60;99.90;;;;;;5059020;28;20501;-70
2022/10/05 03:37:45;;;;;;;16.83;12.43;;;12.60;99.90;;;;;;5057233;28;20458;-71
2022/10/05 03:40:22;;;;;;;13.93;12.63;;;12.60;99.90;;;;;;5051310;28;20460;-71
2022/10/05 03:42:59;;;;;;;14.93;13.43;;;12.50;99.90;;;;;;5056394;28;20459;-71
2022/10/05 03:45:30;;;;;;;14.63;13.13;;;12.50;99.90;;;;;;5051875;28;20530;-69
2022/10/05 03:48:05;;;;;;;17.27;12.10;;;12.50;99.90;;;;;;5055880;28;20873;-71
2022/10/05 03:50:43;;;;;;;12.33;11.13;;;12.50;99.90;;;;;;5059186;28;20458;-70
2022/10/05 03:53:16;;;;;;;14.50;13.10;;;12.50;99.90;;;;;;5054257;28;20507;-70
2022/10/05 03:55:47;;;;;;;14.40;12.60;;;12.50;99.90;;;;;;5054481;28;20488;-70
2022/10/05 03:58:20;;;;;;;14.60;11.70;;;12.60;99.90;;;;;;5052739;28;20477;-69
2022/10/05 04:00:50;;;;;;;16.20;12.77;;;12.60;99.90;;;;;;5057411;28;20902;-70
2022/10/05 04:03:23;;;;;;;16.17;14.47;;;12.60;99.90;;;;;;5057372;28;20452;-72
2022/10/05 04:05:55;;;;;;;15.73;14.07;;;12.60;99.90;;;;;;5053013;28;20464;-71
2022/10/05 04:08:31;;;;;;;14.77;13.37;;;12.60;99.90;;;;;;5060241;28;20517;-72
2022/10/05 04:11:01;;;;;;;15.73;13.87;;;12.60;99.90;;;;;;5055076;28;20469;-70
2022/10/05 04:13:36;;;;;;;18.43;14.60;;;12.70;99.90;;;;;;5050334;28;20468;-70
2022/10/05 04:16:08;;;;;;;16.40;14.30;;;12.70;99.90;;;;;;5050684;28;20561;-70
2022/10/05 04:18:40;;;;;;;15.63;13.90;;;12.70;99.90;;;;;;5053060;28;20474;-70
2022/10/05 04:21:12;;;;;;;19.07;14.33;;;12.80;99.90;;;;;;5062796;28;20460;-72
2022/10/05 04:23:45;;;;;;;19.80;14.40;;;12.80;99.90;;;;;;5058017;28;20490;-70
2022/10/05 04:29:04;;;;;;;16.70;13.90;;;12.80;99.90;;;;;;5062776;28;20479;-70
2022/10/05 04:31:50;;;;;;;16.00;14.30;;;12.80;99.90;;;;;;5069601;28;20467;-70
2022/10/05 04:34:43;;;;;;;18.63;14.07;;;12.70;99.90;;;;;;5076858;28;20477;-70
2022/10/05 04:37:18;;;;;;;18.40;14.23;;;12.70;99.90;;;;;;5072734;28;20466;-69
2022/10/05 04:39:52;;;;;;;16.13;14.40;;;12.70;99.90;;;;;;5074646;28;20459;-72
2022/10/05 04:42:28;;;;;;;20.03;13.97;;;12.70;99.90;;;;;;5079747;28;20469;-70
2022/10/05 04:45:08;;;;;;;19.00;14.17;;;12.80;99.90;;;;;;5081403;28;20473;-70
2022/10/05 04:47:58;;;;;;;15.90;14.27;;;12.80;99.90;;;;;;5084097;28;20473;-70
2022/10/05 04:50:38;;;;;;;14.77;13.43;;;12.80;99.90;;;;;;5079592;28;20701;-73
2022/10/05 04:53:14;;;;;;;14.33;12.60;;;12.90;99.90;;;;;;5071801;28;20459;-69
2022/10/05 04:55:56;;;;;;;14.70;13.27;;;12.90;99.90;;;;;;5074632;28;20495;-70
2022/10/05 04:58:35;;;;;;;14.30;12.90;;;12.90;99.90;;;;;;5073597;28;20454;-70
2022/10/05 05:01:14;;;;;;;16.20;12.90;;;13.00;99.90;;;;;;5069408;28;20455;-72
2022/10/05 05:04:04;;;;;;;19.37;12.87;;;13.00;99.90;;;;;;5074354;28;20478;-70
2022/10/05 05:06:36;;;;;;;24.90;13.23;;;13.00;99.90;;;;;;5074156;28;20467;-74
2022/10/05 05:09:26;;;;;;;21.43;12.70;;;13.00;99.90;;;;;;5078546;28;20471;-72
2022/10/05 05:12:03;;;;;;;17.43;13.23;;;13.00;99.90;;;;;;5069298;28;20819;-72
2022/10/05 05:14:51;;;;;;;20.60;13.13;;;13.00;99.90;;;;;;5070975;28;20505;-70
2022/10/05 05:17:36;;;;;;;23.80;13.10;;;13.10;99.90;;;;;;5069391;28;21007;-72
2022/10/05 05:20:17;;;;;;;13.83;12.23;;;13.00;99.90;;;;;;5072157;28;20467;-69
2022/10/05 05:22:50;;;;;;;15.83;12.37;;;13.00;99.90;;;;;;5074353;28;20523;-70
2022/10/05 05:25:31;;;;;;;17.23;13.83;;;12.90;99.90;;;;;;5074770;28;20467;-70
2022/10/05 05:28:05;;;;;;;14.07;12.30;;;13.00;99.90;;;;;;5073002;28;20486;-70
2022/10/05 05:30:40;;;;;;;20.20;13.07;;;13.10;99.90;;;;;;5073351;28;20545;-72
2022/10/05 05:33:17;;;;;;;14.70;13.10;;;13.00;99.90;;;;;;5070115;28;20489;-71
2022/10/05 05:36:19;;;;;;;19.37;12.97;;;13.00;99.90;;;;;;5071822;28;21087;-70
2022/10/05 05:38:54;;;;;;;21.13;14.47;;;12.90;99.90;;;;;;5094386;28;20548;-70
2022/10/05 05:41:27;;;;;;;14.77;13.43;;;12.90;99.90;;;;;;5087250;28;20487;-70
2022/10/05 05:44:10;;;;;;;19.97;13.83;;;12.90;99.90;;;;;;5090959;28;21054;-71
2022/10/05 05:46:38;;;;;;;15.73;13.73;;;13.00;99.90;;;;;;5092870;28;20458;-69
2022/10/05 05:49:15;;;;;;;17.20;15.40;;;13.00;99.90;;;;;;5092411;28;20458;-72
2022/10/05 05:51:48;;;;;;;30.73;14.40;;;13.00;99.90;;;;;;5093469;28;20465;-71
2022/10/05 05:54:27;;;;;;;16.03;13.70;;;13.00;99.90;;;;;;5095678;28;20457;-69
2022/10/05 05:57:03;;;;;;;16.87;14.20;;;13.00;99.90;;;;;;5098477;28;20828;-71
2022/10/05 05:59:37;;;;;;;17.60;13.87;;;13.00;99.90;;;;;;5094616;28;20461;-70
2022/10/05 06:02:08;;;;;;;17.30;14.80;;;13.00;99.90;;;;;;5092605;28;20547;-68
2022/10/05 06:04:42;;;;;;;18.33;14.60;;;13.10;99.90;;;;;;5093446;28;20466;-72
2022/10/05 06:07:15;;;;;;;18.37;13.80;;;13.10;99.90;;;;;;5091267;28;20457;-70
2022/10/05 06:09:47;;;;;;;14.73;12.57;;;13.00;99.90;;;;;;5092786;28;20480;-72
2022/10/05 06:12:18;;;;;;;15.17;13.80;;;13.00;99.90;;;;;;5092519;28;20519;-69
2022/10/05 06:14:50;;;;;;;18.70;14.40;;;13.00;99.90;;;;;;5092494;28;20481;-69
2022/10/05 06:17:21;;;;;;;17.43;15.63;;;13.10;99.90;;;;;;5090644;28;21016;-69
2022/10/05 06:19:51;;;;;;;20.10;14.63;;;13.10;99.90;;;;;;5094925;28;20460;-68
2022/10/05 06:22:24;;;;;;;18.00;14.90;;;13.20;99.90;;;;;;5091235;28;20944;-68
2022/10/05 06:25:01;;;;;;;15.50;13.90;;;13.10;99.90;;;;;;5092427;28;20473;-68
2022/10/05 06:27:35;;;;;;;18.73;14.60;;;13.20;99.90;;;;;;5092867;28;20462;-69
2022/10/05 06:30:09;;;;;;;15.30;14.00;;;13.20;99.90;;;;;;5097821;28;20465;-71
2022/10/05 06:33:01;;;;;;;16.27;14.17;;;13.20;99.90;;;;;;5098280;28;20469;-69
2022/10/05 06:35:43;;;;;;;15.50;14.17;;;13.20;99.90;;;;;;5099891;28;20489;-73
2022/10/05 06:38:23;;;;;;;15.33;14.03;;;13.30;99.90;;;;;;5093120;28;20549;-69
2022/10/05 06:41:10;;;;;;;16.33;14.77;;;13.30;99.90;;;;;;5095259;28;20461;-69
2022/10/05 06:43:49;;;;;;;15.30;13.80;;;13.30;99.90;;;;;;5093612;28;20464;-68
2022/10/05 06:46:22;;;;;;;16.30;13.93;;;13.50;99.90;;;;;;5096919;28;20485;-69
2022/10/05 06:49:13;;;;;;;15.17;13.97;;;13.50;99.90;;;;;;5104765;28;20548;-69
2022/10/05 06:51:48;;;;;;;15.20;14.00;;;13.50;99.90;;;;;;5090013;28;20638;-68
2022/10/05 06:54:35;;;;;;;16.40;14.70;;;13.60;99.90;;;;;;5088409;28;20457;-70
2022/10/05 06:57:10;;;;;;;22.77;14.37;;;13.60;99.90;;;;;;5092684;28;20466;-68
2022/10/05 06:59:44;;;;;;;16.07;14.47;;;13.70;99.90;;;;;;5088216;28;20457;-72
2022/10/05 07:02:19;;;;;;;16.63;13.40;;;13.70;99.90;;;;;;5087148;28;20841;-71
2022/10/05 07:05:05;;;;;;;15.07;13.47;;;13.80;99.90;;;;;;5091602;28;20477;-73
2022/10/05 07:07:42;;;;;;;14.43;13.23;;;13.90;99.90;;;;;;5092159;28;20489;-69
2022/10/05 07:13:17;;;;;;;13.87;12.73;;;13.80;99.90;;;;;;5093492;28;20853;-69
2022/10/05 07:15:53;;;;;;;14.93;13.53;;;13.90;99.90;;;;;;5094235;28;20550;-69
2022/10/05 07:18:37;;;;;;;15.13;13.70;;;14.00;99.90;;;;;;5094619;28;20470;-69
2022/10/05 07:21:15;;;;;;;17.67;14.50;;;14.00;99.90;;;;;;5093670;28;20458;-69
2022/10/05 07:23:52;;;;;;;14.97;13.77;;;14.10;99.90;;;;;;5095723;28;20460;-69
2022/10/05 07:26:26;;;;;;;14.90;13.60;;;14.10;99.90;;;;;;5089162;28;20465;-69
2022/10/05 07:29:24;;;;;;;17.03;13.40;;;14.30;99.90;;;;;;5091612;28;20488;-69
2022/10/05 07:31:59;;;;;;;15.27;14.00;;;14.20;99.90;;;;;;5086967;28;20947;-69
2022/10/05 07:34:42;;;;;;;16.70;13.90;;;14.40;99.90;;;;;;5087552;28;20494;-68
2022/10/05 07:40:05;;;;;;;15.70;14.60;;;14.50;99.90;;;;;;5090389;28;20816;-68
2022/10/05 07:42:43;;;;;;;16.60;14.90;;;14.50;99.90;;;;;;5089852;28;20457;-68
2022/10/05 07:45:21;;;;;;;24.73;16.03;;;14.70;99.90;;;;;;5088473;28;20461;-68
2022/10/05 07:47:53;;;;;;;16.30;14.73;;;14.70;99.90;;;;;;5089267;28;20821;-68
2022/10/05 07:50:26;;;;;;;16.40;14.93;;;14.80;99.90;;;;;;5087188;28;20558;-69
2022/10/05 07:52:56;;;;;;;16.40;15.30;;;15.00;99.90;;;;;;5090604;28;20457;-72
2022/10/05 07:55:25;;;;;;;17.40;15.90;;;15.00;99.90;;;;;;5094937;28;20477;-72
2022/10/05 07:58:02;;;;;;;19.53;15.30;;;15.20;99.90;;;;;;5088846;28;20515;-68
2022/10/05 08:00:46;;;;;;;16.13;15.03;;;15.20;99.90;;;;;;5085323;28;20808;-68
2022/10/05 08:03:20;;;;;;;15.90;14.90;;;15.30;99.90;;;;;;5091091;28;20473;-68
2022/10/05 08:05:47;;;;;;;17.67;15.53;;;15.50;99.90;;;;;;5089003;28;20469;-68
2022/10/05 08:08:23;;;;;;;17.03;15.43;;;15.50;99.90;;;;;;5093410;28;20802;-68
2022/10/05 08:10:57;;;;;;;16.60;15.30;;;15.60;99.90;;;;;;5093315;28;20472;-68
2022/10/05 08:13:29;;;;;;;16.30;14.93;;;15.80;99.90;;;;;;5094471;28;20467;-69
2022/10/05 08:16:01;;;;;;;17.10;15.67;;;15.90;99.90;;;;;;5089162;28;21466;-70
2022/10/05 08:18:42;;;;;;;17.50;16.20;;;16.10;99.90;;;;;;5095097;28;20462;-70
2022/10/05 08:21:11;;;;;;;16.50;15.47;;;16.40;99.90;;;;;;5089991;28;20456;-71
2022/10/05 08:23:45;;;;;;;17.00;15.90;;;16.70;99.90;;;;;;5091509;28;20935;-68
2022/10/05 08:26:21;;;;;;;16.20;15.10;;;16.90;99.90;;;;;;5091916;28;20816;-68
2022/10/05 08:28:55;;;;;;;16.43;15.33;;;17.10;99.90;;;;;;5094571;28;20491;-69
2022/10/05 08:31:28;;;;;;;15.90;14.90;;;17.30;99.90;;;;;;5089779;28;20454;-68
2022/10/05 08:34:02;;;;;;;16.10;15.07;;;17.40;99.90;;;;;;5092601;28;20571;-68
2022/10/05 08:36:43;;;;;;;16.13;15.03;;;17.60;99.90;;;;;;5091921;28;20484;-68
2022/10/05 08:39:14;;;;;;;15.47;14.67;;;17.80;99.90;;;;;;5091053;28;20956;-68
2022/10/05 08:42:02;;;;;;;15.23;14.40;;;17.90;99.90;;;;;;5087995;28;20878;-68
2022/10/05 08:45:03;;;;;;;15.70;14.70;;;17.90;99.90;;;;;;5094775;28;20475;-71
2022/10/05 08:47:56;;;;;;;16.00;15.00;;;18.00;99.90;;;;;;5094045;28;20475;-69
2022/10/05 08:50:34;;;;;;;15.73;14.67;;;18.10;99.90;;;;;;5078347;28;20892;-68
2022/10/05 08:53:23;;;;;;;15.30;14.40;;;17.90;99.90;;;;;;5090867;28;20588;-68
2022/10/05 08:56:02;;;;;;;15.50;14.70;;;18.10;99.90;;;;;;5089070;28;21027;-69
2022/10/05 08:58:43;;;;;;;16.20;15.07;;;18.10;99.90;;;;;;5089945;28;20909;-72
2022/10/05 09:01:20;;;;;;;15.60;14.60;;;18.10;99.90;;;;;;5087570;28;21125;-68
2022/10/05 09:04:08;;;;;;;16.20;15.10;;;18.10;99.90;;;;;;5090465;28;20466;-73
2022/10/05 09:07:03;;;;;;;15.50;14.33;;;18.10;99.90;;;;;;5091176;28;20452;-70
2022/10/05 09:09:50;;;;;;;15.43;14.37;;;18.10;99.90;;;;;;5088245;28;20468;-70
2022/10/05 09:12:46;;;;;;;15.60;14.70;;;18.00;99.90;;;;;;5090673;28;20527;-68
2022/10/05 09:15:40;;;;;;;15.50;14.70;;;18.10;99.90;;;;;;5090530;28;20485;-68
2022/10/05 09:18:28;;;;;;;16.60;15.50;;;18.20;99.90;;;;;;5093113;28;21015;-68
2022/10/05 09:21:02;;;;;;;15.30;14.50;;;18.20;99.90;;;;;;5087872;28;20881;-73
2022/10/05 09:23:38;;;;;;;15.70;14.60;;;18.10;99.90;;;;;;5090444;28;20564;-68
2022/10/05 09:26:28;;;;;;;16.27;15.23;;;18.30;99.90;;;;;;5095994;28;20453;-68
2022/10/05 09:29:17;;;;;;;15.77;14.77;;;18.20;99.90;;;;;;5089552;28;20482;-67
2022/10/05 09:32:03;;;;;;;16.37;15.10;;;18.30;99.90;;;;;;5090898;28;20823;-69
2022/10/05 09:35:01;;;;;;;16.00;15.10;;;18.30;99.90;;;;;;5089081;28;20460;-68
2022/10/05 09:37:53;;;;;;;16.17;15.17;;;18.30;99.90;;;;;;5088838;28;20494;-67
2022/10/05 09:41:00;;;;;;;15.10;14.10;;;18.30;99.90;;;;;;5074656;28;20546;-67
2022/10/05 09:43:53;;;;;;;16.30;15.17;;;18.20;99.90;;;;;;5089451;28;20988;-69
2022/10/05 09:46:47;;;;;;;16.10;14.90;;;18.30;99.90;;;;;;5093780;28;20461;-70
2022/10/05 09:49:37;;;;;;;15.30;14.50;;;18.40;99.90;;;;;;5088744;28;20827;-68
2022/10/05 09:52:12;;;;;;;15.00;14.23;;;18.40;99.90;;;;;;5088893;28;20473;-67
2022/10/05 09:55:05;;;;;;;16.33;14.97;;;18.30;99.90;;;;;;5091202;28;21020;-67
2022/10/05 09:58:02;;;;;;;16.03;14.50;;;18.40;99.90;;;;;;5087542;28;20491;-67
2022/10/05 10:00:38;;;;;;;15.00;14.00;;;18.60;99.90;;;;;;5089624;28;20566;-67
2022/10/05 10:03:42;;;;;;;14.57;13.70;;;18.30;99.90;;;;;;5089236;28;20854;-67
2022/10/05 10:06:34;;;;;;;14.90;14.10;;;18.40;99.90;;;;;;5086987;28;20479;-67
2022/10/05 10:09:17;;;;;;;15.33;14.33;;;18.60;99.90;;;;;;5091426;28;20561;-67
2022/10/05 10:12:01;;;;;;;15.47;14.43;;;18.50;99.90;;;;;;5089586;28;20959;-68
2022/10/05 10:15:09;;;;;;;15.03;14.23;;;18.60;99.90;;;;;;5099518;28;20453;-67
2022/10/05 10:17:55;;;;;;;15.70;14.70;;;18.80;99.90;;;;;;5091812;28;20909;-67
2022/10/05 10:20:44;;;;;;;16.07;14.60;;;19.00;99.90;;;;;;5096644;28;20472;-68
2022/10/05 10:23:24;;;;;;;15.03;14.23;;;19.10;99.90;;;;;;5091388;28;20988;-67
2022/10/05 10:26:23;;;;;;;15.90;14.90;;;19.10;99.90;;;;;;5095234;28;20460;-69
2022/10/05 10:29:30;;;;;;;16.03;14.77;;;19.20;99.90;;;;;;5091140;28;20836;-70
2022/10/05 10:32:14;;;;;;;14.27;13.60;;;19.10;99.90;;;;;;5092910;28;20490;-67
2022/10/05 10:35:05;;;;;;;16.00;15.10;;;19.40;99.90;;;;;;5088567;28;20462;-68
2022/10/05 10:37:37;;;;;;;17.03;15.93;;;19.60;99.90;;;;;;5091248;28;20546;-69
2022/10/05 10:40:24;;;;;;;16.90;15.60;;;19.50;99.90;;;;;;5085003;28;20816;-67
2022/10/05 10:43:20;;;;;;;16.73;15.63;;;19.60;99.90;;;;;;5087673;28;20453;-69
2022/10/05 10:45:59;;;;;;;16.60;15.60;;;19.80;99.90;;;;;;5090920;28;20579;-67
2022/10/05 10:48:53;;;;;;;16.90;15.30;;;20.00;99.90;;;;;;5094232;28;20908;-68
2022/10/05 10:51:47;;;;;;;16.57;15.17;;;20.10;99.90;;;;;;5086564;28;21003;-70
2022/10/05 10:54:41;;;;;;;17.23;15.97;;;20.20;99.90;;;;;;5076847;28;20465;-68
2022/10/05 10:57:10;;;;;;;17.00;16.00;;;20.60;99.90;;;;;;5095123;28;20900;-67
2022/10/05 11:00:02;;;;;;;16.97;15.97;;;20.90;99.90;;;;;;5090406;28;20461;-67
2022/10/05 11:03:03;;;;;;;16.40;15.60;;;21.60;99.90;;;;;;5090515;28;20480;-70
2022/10/05 11:05:55;;;;;;;17.00;15.90;;;21.80;99.90;;;;;;5088275;28;20549;-66
2022/10/05 11:08:55;;;;;;;16.03;15.20;;;21.90;99.90;;;;;;5088022;28;20477;-69
2022/10/05 11:11:38;;;;;;;15.83;15.13;;;22.40;99.90;;;;;;5045685;28;20466;-70
2022/10/05 11:14:29;;;;;;;16.30;15.30;;;22.70;99.90;;;;;;5095619;28;20835;-67
2022/10/05 11:17:34;;;;;;;16.57;15.77;;;23.20;99.90;;;;;;5095388;28;20548;-67
2022/10/05 11:20:19;;;;;;;16.73;15.93;;;23.50;99.90;;;;;;5064588;28;20473;-67
2022/10/05 11:22:59;;;;;;;17.57;16.57;;;23.30;99.90;;;;;;5095910;28;20462;-68
2022/10/05 11:25:50;;;;;;;16.90;16.10;;;23.80;99.90;;;;;;5097496;28;20452;-67
2022/10/05 11:28:47;;;;;;;16.27;15.47;;;23.40;99.90;;;;;;5093422;28;20484;-66
2022/10/05 11:31:50;;;;;;;15.80;15.10;;;23.30;99.90;;;;;;5091141;28;21027;-67
2022/10/05 11:34:44;;;;;;;15.57;14.77;;;23.90;99.90;;;;;;5093215;28;20465;-67
2022/10/05 11:37:47;;;;;;;16.03;15.10;;;24.40;99.90;;;;;;5092822;28;20484;-67
2022/10/05 11:40:52;;;;;;;15.57;14.50;;;24.40;99.90;;;;;;5095509;28;20457;-67
2022/10/05 11:43:57;;;;;;;16.20;15.20;;;24.80;99.90;;;;;;5063845;28;20456;-70
2022/10/05 11:46:30;;;;;;;15.97;15.07;;;24.80;99.90;;;;;;5091328;28;20458;-68
2022/10/05 11:49:34;;;;;;;15.80;15.03;;;24.70;99.90;;;;;;5090571;28;20497;-67
2022/10/05 11:52:08;;;;;;;15.80;15.10;;;24.90;99.90;;;;;;5019605;28;20559;-67
2022/10/05 11:54:51;;;;;;;16.70;15.90;;;25.00;99.90;;;;;;5015395;28;20477;-67
2022/10/05 11:57:22;;;;;;;16.60;15.70;;;24.80;99.90;;;;;;5060229;28;20497;-67
2022/10/05 11:59:56;;;;;;;15.93;15.23;;;25.00;99.90;;;;;;5088762;28;20854;-67
2022/10/05 12:02:51;;;;;;;16.60;15.70;;;24.80;99.90;;;;;;5093684;28;20465;-68
2022/10/05 12:05:22;;;;;;;16.83;15.73;;;24.90;99.90;;;;;;5076895;28;20546;-68
2022/10/05 12:08:01;;;;;;;16.53;15.57;;;25.50;99.90;;;;;;5092464;28;20454;-68
2022/10/05 12:10:34;;;;;;;15.83;15.10;;;25.60;99.90;;;;;;5091785;28;20461;-68
2022/10/05 12:13:19;;;;;;;16.50;15.60;;;25.60;99.90;;;;;;5097092;28;20463;-68
2022/10/05 12:15:52;;;;;;;16.90;16.00;;;25.70;99.90;;;;;;5091181;28;20504;-66
2022/10/05 12:18:40;;;;;;;16.50;15.70;;;26.00;99.90;;;;;;5090374;28;20942;-68
2022/10/05 12:21:15;;;;;;;18.20;17.07;;;25.90;99.90;;;;;;5092265;28;20515;-67
2022/10/05 12:23:46;;;;;;;16.47;15.60;;;25.80;99.90;;;;;;5088091;28;20975;-69
2022/10/05 12:26:20;;;;;;;16.73;15.93;;;25.90;99.90;;;;;;5093881;28;20466;-67
2022/10/05 12:28:53;;;;;;;16.80;15.60;;;26.10;99.90;;;;;;5094527;28;20487;-68
2022/10/05 12:31:28;;;;;;;17.47;16.00;;;26.50;99.90;;;;;;5087953;28;20454;-68
2022/10/05 12:34:02;;;;;;;16.60;15.70;;;26.50;99.90;;;;;;5090901;28;20458;-67
2022/10/05 12:36:34;;;;;;;16.77;15.77;;;26.60;99.90;;;;;;5089301;28;20485;-70
2022/10/05 12:39:08;;;;;;;16.37;15.47;;;26.70;99.90;;;;;;5086665;28;20992;-70
2022/10/05 12:41:43;;;;;;;17.27;16.00;;;26.90;99.90;;;;;;5095013;28;20462;-67
2022/10/05 12:44:18;;;;;;;16.50;15.73;;;27.20;99.90;;;;;;5092850;28;20471;-68
2022/10/05 12:46:56;;;;;;;17.17;16.00;;;27.30;99.90;;;;;;5093457;28;20472;-68
2022/10/05 12:49:51;;;;;;;16.50;15.60;;;27.60;98.70;;;;;;5090048;28;20970;-67
2022/10/05 12:52:37;;;;;;;16.73;15.87;;;27.70;98.40;;;;;;5093064;28;20465;-67
2022/10/05 12:55:11;;;;;;;16.70;15.57;;;27.60;97.90;;;;;;5089287;28;20465;-68
2022/10/05 12:57:46;;;;;;;17.67;16.53;;;27.00;97.80;;;;;;5090481;28;20546;-70
2022/10/05 13:00:16;;;;;;;16.30;15.40;;;26.70;97.80;;;;;;5090729;28;20523;-69
2022/10/05 13:02:46;;;;;;;16.30;15.60;;;26.70;97.90;;;;;;5089116;28;20458;-67
2022/10/05 13:05:33;;;;;;;17.00;16.10;;;27.00;97.60;;;;;;5088877;28;20573;-70
2022/10/05 13:08:13;;;;;;;15.90;15.00;;;27.10;98.00;;;;;;5089671;28;20472;-68
2022/10/05 13:10:46;;;;;;;16.10;15.40;;;27.30;98.20;;;;;;5090707;28;20457;-68
2022/10/05 13:13:35;;;;;;;16.27;15.40;;;27.40;97.30;;;;;;5094883;28;20475;-67
2022/10/05 13:16:13;;;;;;;15.63;14.93;;;27.90;96.40;;;;;;5087289;28;20497;-68
2022/10/05 13:18:49;;;;;;;16.20;15.30;;;27.90;96.10;;;;;;5088778;28;20559;-67
2022/10/05 13:21:21;;;;;;;15.73;14.90;;;27.60;95.30;;;;;;5089211;28;21048;-68
2022/10/05 13:23:59;;;;;;;16.27;15.37;;;27.70;95.60;;;;;;5092247;28;20465;-70
2022/10/05 13:26:32;;;;;;;16.80;15.70;;;27.70;95.20;;;;;;5099186;28;20467;-69
2022/10/05 13:29:08;;;;;;;16.77;15.97;;;27.90;94.50;;;;;;5090548;28;20996;-68
2022/10/05 13:31:43;;;;;;;16.20;15.50;;;27.90;94.50;;;;;;5091043;28;20465;-69
2022/10/05 13:34:21;;;;;;;18.27;17.17;;;28.00;94.20;;;;;;5091620;28;20456;-70
2022/10/05 13:36:58;;;;;;;17.47;16.67;;;27.90;94.70;;;;;;5092933;28;20485;-69